Flight Track Log - Related Links

Times and Time Zones

All times are in EDT time to prevent confusion due to time zone crossing. See the EJA583 flight status page for this flight to view local times or setup timezone preferences in your user account.


Time Position Orientation Groundspeed Altitude Reporting Facility
EDT Latitude Longitude Course Direction KTS MPH feet Rate Location/Type
Thu 08:46:41 AM 31.9236 -102.3133 349° North 251 289 7,300  Level Fort Worth Center
Thu 08:47:41 AM 31.9669 -102.3792 308° West 251 289 9,300 2,000 Climbing Fort Worth Center
Thu 08:48:41 AM 32.0453 -102.4031 346° North 247 284 11,300 2,000 Climbing Fort Worth Center
Thu 08:49:41 AM 32.0922 -102.4842 304° West 265 305 13,300 2,000 Climbing Fort Worth Center
Thu 08:50:41 AM 32.1172 -102.5861 286° West 302 348 15,300 2,150 Climbing Fort Worth Center
Thu 08:51:00 AM 32.5675 -102.3474 352° North  Level FlightAware Approximate
Thu 08:51:41 AM 32.1439 -102.6956 286° West 312 359 17,600  Level Fort Worth Center
Thu 08:52:00 AM 32.6737 -102.3701 349° North  Level FlightAware Approximate
Thu 08:52:41 AM 32.2078 -102.7631 318° Northwest 307 353 19,500  Level Fort Worth Center
Thu 08:53:41 AM 32.2994 -102.7683 357° North 281 323 21,500 1,800 Climbing Fort Worth Center
Thu 08:54:41 AM 32.3742 -102.7753 356° North 292 336 23,100 1,800 Climbing Fort Worth Center
Thu 08:55:41 AM 32.4619 -102.7781 358° North 303 349 25,100 2,000 Climbing Fort Worth Center
Thu 08:56:41 AM 32.5472 -102.7806 359° North 303 349 27,100 1,850 Climbing Fort Worth Center
Thu 08:57:41 AM 32.6286 -102.7806 360° North 303 349 28,800 1,400 Climbing Fort Worth Center
Thu 08:58:41 AM 32.7142 -102.7858 357° North 303 349 29,900 950 Climbing Fort Worth Center
Thu 08:59:41 AM 32.8081 -102.7864 360° North 314 361 30,700 800 Climbing Fort Worth Center
Thu 09:00:41 AM 32.9058 -102.7900 358° North 333 383 31,500 850 Climbing Fort Worth Center
Thu 09:01:41 AM 33.0017 -102.7931 358° North 344 396 32,400 900 Climbing Fort Worth Center
Thu 09:02:41 AM 33.1061 -102.7897 North 350 403 33,300 900 Climbing Fort Worth Center
Thu 09:03:41 AM 33.2083 -102.7908 359° North 358 412 34,200 900 Climbing Fort Worth Center
Thu 09:04:41 AM 33.3081 -102.8019 355° North 358 412 35,100 850 Climbing Fort Worth Center
Thu 09:05:41 AM 33.4081 -102.8056 358° North 358 412 35,900 800 Climbing Fort Worth Center
Thu 09:06:41 AM 33.5186 -102.8072 359° North 358 412 36,700 800 Climbing Fort Worth Center
Thu 09:07:41 AM 33.6186 -102.8133 357° North 372 428 37,500 1,150 Climbing Fort Worth Center
Thu 09:08:41 AM 33.7292 -102.8153 359° North 372 428 39,000 1,049 Climbing Fort Worth Center
Thu 09:10:04 AM 33.8575 -102.8200 358° North 357 411 40,000 417 Climbing Albuquerque Center
Thu 09:11:05 AM 33.9619 -102.8247 358° North 370 426 40,000  Level Albuquerque Center
Thu 09:12:06 AM 34.0728 -102.8222 North 394 453 40,000  Level Albuquerque Center
Thu 09:13:07 AM 34.1858 -102.8242 359° North 403 464 40,000  Level Albuquerque Center
Thu 09:14:07 AM 34.3167 -102.8369 355° North 406 467 40,000 248 Level Albuquerque Center
Thu 09:15:08 AM 34.4314 -102.8394 359° North 410 472 40,500 492 Climbing Albuquerque Center
Thu 09:16:09 AM 34.5444 -102.8486 356° North 404 465 41,000 246 Climbing Albuquerque Center
Thu 09:17:10 AM 34.6525 -102.8811 346° North 403 464 41,000  Level Albuquerque Center
Thu 09:18:11 AM 34.7581 -102.9097 347° North 393 452 41,000  Level Albuquerque Center
Thu 09:19:12 AM 34.8547 -102.9364 347° North 363 418 41,000  Level Albuquerque Center
Thu 09:20:13 AM 34.9553 -102.9633 348° North 363 418 41,000  Level Albuquerque Center
Thu 09:21:14 AM 35.0606 -102.9911 348° North 375 432 41,000  Level Albuquerque Center
Thu 09:22:15 AM 35.1694 -103.0203 348° North 389 448 41,000  Level Albuquerque Center
Thu 09:23:16 AM 35.2794 -103.0500 348° North 397 457 41,000  Level Albuquerque Center
Thu 09:24:17 AM 35.3919 -103.0800 348° North 404 465 41,000  Level Albuquerque Center
Thu 09:25:18 AM 35.5033 -103.1108 347° North 407 468 41,000  Level Albuquerque Center
Thu 09:26:19 AM 35.6147 -103.1408 348° North 408 470 41,000  Level Albuquerque Center
Thu 09:27:20 AM 35.7264 -103.1714 347° North 408 470 41,000  Level Albuquerque Center
Thu 09:28:21 AM 35.8361 -103.2022 347° North 405 466 41,000  Level Albuquerque Center
Thu 09:29:22 AM 35.9481 -103.2331 347° North 407 468 41,000  Level Albuquerque Center
Thu 09:30:23 AM 36.0592 -103.2625 348° North 406 467 41,000  Level Albuquerque Center
Thu 09:31:24 AM 36.1889 -103.2992 347° North 407 468 41,000  Level Albuquerque Center
Thu 09:32:25 AM 36.3003 -103.3308 347° North 408 470 41,000  Level Albuquerque Center
Thu 09:33:26 AM 36.4114 -103.3611 348° North 407 468 41,000  Level Albuquerque Center
Thu 09:34:27 AM 36.5231 -103.3939 347° North 407 468 41,000  Level Albuquerque Center
Thu 09:35:28 AM 36.6356 -103.4244 348° North 409 471 41,000 -443 Level Albuquerque Center
Thu 09:36:29 AM 36.7458 -103.4553 347° North 407 468 40,100 -488 Descending Albuquerque Center
Thu 09:37:31 AM 36.8514 -103.4853 347° North 405 466 40,000 -49 Descending Albuquerque Center
Thu 09:38:32 AM 36.9744 -103.5192 348° North 406 467 40,000  Level Albuquerque Center
Thu 09:39:33 AM 37.0814 -103.5483 348° North 409 471 40,000  Level Albuquerque Center
Thu 09:40:34 AM 37.1878 -103.5794 347° North 410 472 40,000  Level Albuquerque Center
Thu 09:41:35 AM 37.3144 -103.6008 352° North 414 476 40,000 -148 Level Albuquerque Center
Thu 09:42:36 AM 37.4250 -103.6022 359° North 416 479 39,700 -689 Descending Albuquerque Center
Thu 09:43:37 AM 37.5528 -103.6036 360° North 415 478 38,600 -829 Descending Albuquerque Center
Thu 09:44:39 AM 37.6572 -103.6058 359° North 403 464 38,000 -713 Descending Albuquerque Center
Thu 09:46:00 AM 37.8047 -103.6089 359° North 373 429 36,900 -881 Descending Denver Center
Thu 09:47:02 AM 37.9044 -103.6108 359° North 374 430 35,900 -1,024 Descending Denver Center
Thu 09:48:03 AM 38.0194 -103.6128 359° North 371 427 34,800 -1,024 Descending Denver Center
Thu 09:49:05 AM 38.1214 -103.6147 359° North 379 436 33,800 -1,122 Descending Denver Center
Thu 09:50:06 AM 38.2261 -103.6164 359° North 392 451 32,500 -2,146 Descending Denver Center
Thu 09:51:08 AM 38.3533 -103.6178 360° North 410 472 29,400 -2,758 Descending Denver Center
Thu 09:52:10 AM 38.4619 -103.6208 359° North 409 471 26,800 -2,683 Descending Denver Center
Thu 09:53:11 AM 38.5794 -103.6633 344° North 399 459 23,900 -1,951 Descending Denver Center
Thu 09:54:13 AM 38.6603 -103.7414 323° Northwest 384 442 22,800 -1,210 Descending Denver Center
Thu 09:55:15 AM 38.7561 -103.8331 323° Northwest 386 444 21,400 -1,268 Descending Denver Center
Thu 09:56:16 AM 38.8397 -103.9122 324° Northwest 390 449 20,200 -1,659 Descending Denver Center
Thu 09:57:18 AM 38.9292 -103.9967 324° Northwest 379 436 18,000 -1,935 Descending Denver Center
Thu 09:58:20 AM 39.0039 -104.0689 323° Northwest 345 397 16,200 -968 Descending Denver Center
Thu 09:59:22 AM 39.0411 -104.1725 295° West 333 383 16,000 -98 Descending Denver Center
Thu 10:00:23 AM 39.0714 -104.3006 287° West 335 386 16,000 -585 Level Denver Center
Thu 10:01:25 AM 39.1122 -104.4092 296° West 356 410 14,800 -1,355 Descending Denver Center
Thu 10:02:27 AM 39.1961 -104.4878 324° Northwest 336 387 13,200 -1,500 Descending Denver Center
Thu 10:03:29 AM 39.2681 -104.5569 323° Northwest 323 372 11,700 -1,512 Descending Denver Center
Thu 10:04:30 AM 39.3447 -104.6311 323° Northwest 316 364 10,100 -829 Descending Denver Center
Thu 10:05:32 AM 39.4100 -104.6947 323° Northwest 294 338 10,000 -484 Descending Denver Center
Thu 10:06:34 AM 39.4708 -104.7531 323° Northwest 272 313 9,100 -919 Descending Denver Center
Thu 10:07:36 AM 39.5406 -104.7708 349° North 238 274 8,100 -629 Descending Denver Center
Thu 10:08:38 AM 39.5986 -104.7722 359° North 209 241 7,800 -585 Descending Denver Center
Thu 10:09:39 AM 39.6275 -104.8269 304° West 174 200 6,900 -829 Descending Denver Center
Thu 10:10:41 AM 39.5972 -104.8533 214° Southwest 138 159 6,100 -774 Descending Denver Center
Thu 10:12:00 AM 39.5667 -104.8333 127° Southeast  Level FlightAware Approximate

Login

Don't have an account? Register now (free) for customized features, flight alerts, and more!